Time;durP1;ratioP1;P1;durP2;ratioP2;P2;SDS_P1;SDS_P2;PMS_P1;PMS_P2;Temp;Humidity;BMP_temperature;BMP_pressure;BME280_temperature;BME280_humidity;BME280_pressure;Samples;Min_cycle;Max_cycle;Signal;HPM_P1;HPM_P2
2022/05/10 00:00:14;;;;;;;13.55;8.45;;;;;;;15.46;81.32;101800.63;5034242;28;20029;-85
2022/05/10 00:02:39;;;;;;;13.90;9.15;;;;;;;15.47;81.07;101792.63;5031310;28;20238;-85
2022/05/10 00:05:06;;;;;;;14.27;8.52;;;;;;;15.50;80.95;101787.06;5035236;28;20654;-84
2022/05/10 00:07:34;;;;;;;14.88;8.55;;;;;;;15.51;80.85;101790.50;5034740;28;20032;-85
2022/05/10 00:10:00;;;;;;;13.00;8.65;;;;;;;15.49;81.28;101784.63;5030397;28;20064;-85
2022/05/10 00:12:27;;;;;;;14.07;8.85;;;;;;;15.43;81.28;101783.47;5036755;28;20029;-86
2022/05/10 00:14:52;;;;;;;12.90;8.77;;;;;;;15.38;81.54;101778.72;5032101;28;20025;-85
2022/05/10 00:17:25;;;;;;;17.63;8.88;;;;;;;15.38;81.46;101776.13;5033776;28;20080;-85
2022/05/10 00:19:52;;;;;;;14.35;8.88;;;;;;;15.35;81.40;101781.69;5017096;28;20064;-86
2022/05/10 00:22:18;;;;;;;12.68;8.90;;;;;;;15.33;81.15;101770.59;5018236;28;20518;-84
2022/05/10 00:24:43;;;;;;;11.57;9.02;;;;;;;15.34;81.02;101774.81;5032181;28;20029;-84
2022/05/10 00:27:09;;;;;;;11.20;8.65;;;;;;;15.33;81.07;101775.81;5032187;28;20037;-86
2022/05/10 00:29:35;;;;;;;17.13;8.27;;;;;;;15.34;80.93;101774.00;5033603;28;20632;-84
2022/05/10 00:32:01;;;;;;;13.85;9.52;;;;;;;15.32;80.95;101779.38;5034322;28;20037;-84
2022/05/10 00:34:29;;;;;;;12.63;8.00;;;;;;;15.27;81.50;101786.09;5027121;28;20099;-85
2022/05/10 00:36:55;;;;;;;12.30;8.30;;;;;;;15.22;82.21;101777.91;5044657;28;20132;-85
2022/05/10 00:39:22;;;;;;;13.50;8.77;;;;;;;15.17;82.87;101775.81;5036621;28;20024;-85
2022/05/10 00:42:12;;;;;;;14.65;9.20;;;;;;;15.14;83.25;101776.13;5025069;28;20044;-84
2022/05/10 00:44:44;;;;;;;12.30;8.88;;;;;;;15.11;83.19;101774.66;5048792;28;20029;-83
2022/05/10 00:47:27;;;;;;;18.23;9.10;;;;;;;15.07;83.30;101777.72;5022728;28;20128;-86
2022/05/10 00:49:56;;;;;;;;;;;;;;;14.96;83.42;101768.44;5016314;28;20033;-84
2022/05/10 00:52:51;;;;;;;16.65;10.15;;;;;;;14.85;83.60;101772.16;5017168;28;19920;-85
2022/05/10 00:55:27;;;;;;;15.15;8.88;;;;;;;14.82;84.17;101767.25;5017311;28;20040;-84
2022/05/10 00:57:54;;;;;;;14.25;9.73;;;;;;;14.81;84.18;101763.03;5045448;28;20112;-85
2022/05/10 01:00:26;;;;;;;15.23;9.32;;;;;;;14.78;84.17;101758.13;5011857;28;20044;-84
2022/05/10 01:03:11;;;;;;;15.23;9.38;;;;;;;14.81;83.98;101759.59;5034666;28;20032;-84
2022/05/10 01:05:46;;;;;;;14.25;9.68;;;;;;;14.83;83.47;101768.91;5035454;28;20029;-84
2022/05/10 01:08:18;;;;;;;15.70;9.88;;;;;;;14.84;83.13;101764.50;5050347;28;20025;-84
2022/05/10 01:11:08;;;;;;;13.18;8.77;;;;;;;14.83;83.31;101758.47;5051011;28;20038;-85
2022/05/10 01:13:55;;;;;;;12.75;9.30;;;;;;;14.79;83.21;101759.75;5047992;28;20047;-85
2022/05/10 01:16:23;;;;;;;14.20;9.82;;;;;;;14.69;83.31;101756.47;5020900;28;20306;-84
2022/05/10 01:18:50;;;;;;;15.07;10.48;;;;;;;14.61;83.81;101754.66;5031333;28;20029;-85
2022/05/10 01:21:40;;;;;;;15.95;9.10;;;;;;;14.56;83.94;101756.88;5032396;28;20037;-85
2022/05/10 01:24:25;;;;;;;20.90;10.05;;;;;;;14.54;84.11;101748.41;5044710;28;20029;-84
2022/05/10 01:27:11;;;;;;;17.98;10.30;;;;;;;14.50;84.16;101752.31;5047428;28;20045;-84
2022/05/10 01:29:55;;;;;;;13.35;8.95;;;;;;;14.47;84.12;101745.63;5014746;28;20463;-84
2022/05/10 01:35:15;;;;;;;13.23;9.75;;;;;;;14.35;83.97;101737.28;5026823;28;20029;-84
2022/05/10 01:37:46;;;;;;;13.90;9.43;;;;;;;14.24;84.61;101741.94;5051057;28;20044;-86
2022/05/10 01:40:22;;;;;;;18.45;10.70;;;;;;;14.25;85.00;101739.19;5049309;28;20832;-83
2022/05/10 01:42:55;;;;;;;16.95;11.18;;;;;;;14.14;85.93;101742.06;5010726;28;20120;-84
2022/05/10 01:45:26;;;;;;;16.25;11.27;;;;;;;13.99;86.81;101745.28;5033019;28;20103;-84
2022/05/10 01:47:59;;;;;;;20.60;10.27;;;;;;;13.95;87.14;101730.88;5051054;28;20025;-85
2022/05/10 01:50:36;;;;;;;20.03;11.77;;;;;;;13.93;87.39;101737.25;5030865;28;20553;-84
2022/05/10 01:53:09;;;;;;;15.98;11.65;;;;;;;13.90;87.46;101727.13;5033459;28;20472;-86
2022/05/10 01:55:41;;;;;;;19.65;10.52;;;;;;;13.88;87.30;101726.47;5034123;28;20621;-84
2022/05/10 01:58:13;;;;;;;15.25;11.20;;;;;;;13.89;87.44;101728.09;5010968;28;20092;-84
2022/05/10 02:00:40;;;;;;;16.88;10.57;;;;;;;13.89;87.11;101725.50;5033872;28;20032;-84
2022/05/10 02:03:42;;;;;;;19.88;11.05;;;;;;;13.83;87.23;101721.72;5032972;28;20056;-86
2022/05/10 02:06:17;;;;;;;14.48;10.50;;;;;;;13.82;87.29;101730.50;5001562;28;20045;-84
2022/05/10 02:09:00;;;;;;;18.52;11.07;;;;;;;13.82;87.10;101731.34;5031468;28;20033;-84
2022/05/10 02:11:27;;;;;;;15.48;10.75;;;;;;;13.84;86.76;101725.94;5032987;28;20044;-84
2022/05/10 02:14:06;;;;;;;19.98;11.00;;;;;;;13.82;86.80;101731.34;5036451;28;20509;-84
2022/05/10 02:16:53;;;;;;;14.80;11.20;;;;;;;13.81;86.75;101731.50;5035119;28;20520;-86
2022/05/10 02:19:28;;;;;;;16.48;11.27;;;;;;;13.82;86.52;101733.09;5013263;28;20064;-85
2022/05/10 02:22:07;;;;;;;15.40;10.23;;;;;;;13.82;85.89;101738.31;5026030;28;20033;-84
2022/05/10 02:24:49;;;;;;;16.45;10.45;;;;;;;13.81;86.13;101737.50;5013237;28;20432;-84
2022/05/10 02:27:22;;;;;;;14.60;10.80;;;;;;;13.78;86.31;101732.59;5029782;28;20025;-84
2022/05/10 02:29:52;;;;;;;15.35;10.60;;;;;;;13.76;86.48;101731.94;5019968;28;20351;-84
2022/05/10 02:35:10;;;;;;;18.40;12.80;;;;;;;13.47;87.87;101726.19;5046926;28;20056;-83
2022/05/10 02:37:36;;;;;;;16.77;12.38;;;;;;;13.31;88.95;101712.09;5026842;28;20038;-87
2022/05/10 02:40:03;;;;;;;17.60;12.23;;;;;;;13.26;89.39;101719.53;5030399;28;20048;-84
2022/05/10 02:42:29;;;;;;;16.88;11.95;;;;;;;13.23;89.30;101715.44;5045925;28;20059;-84
2022/05/10 02:44:55;;;;;;;16.90;12.95;;;;;;;13.21;89.42;101721.75;5029819;28;20482;-86
2022/05/10 02:47:34;;;;;;;21.95;12.77;;;;;;;13.17;89.58;101710.84;5013508;28;20039;-85
2022/05/10 02:50:00;;;;;;;19.23;12.25;;;;;;;13.20;89.54;101715.75;5045732;28;20417;-84
2022/05/10 02:52:26;;;;;;;19.85;12.20;;;;;;;13.25;89.16;101704.88;5031078;28;20056;-85
2022/05/10 02:54:57;;;;;;;14.57;11.18;;;;;;;13.29;88.65;101702.78;5036333;28;20663;-84
2022/05/10 02:57:25;;;;;;;17.33;11.88;;;;;;;13.28;88.24;101696.75;5044686;28;20025;-84
2022/05/10 02:59:53;;;;;;;20.35;11.32;;;;;;;13.29;87.69;101695.78;5013796;28;20033;-85
2022/05/10 03:02:27;;;;;;;19.25;12.35;;;;;;;13.14;88.03;101692.91;5039870;28;20028;-84
2022/05/10 03:04:57;;;;;;;14.65;11.25;;;;;;;13.04;89.02;101693.00;5031838;28;20037;-84
2022/05/10 03:07:24;;;;;;;18.30;11.40;;;;;;;13.02;89.27;101694.13;5028839;28;20037;-85
2022/05/10 03:09:50;;;;;;;16.58;12.35;;;;;;;13.03;89.38;101698.34;5033062;28;20205;-85
2022/05/10 03:12:16;;;;;;;18.52;12.57;;;;;;;13.05;88.96;101691.19;5013408;28;20056;-84
2022/05/10 03:14:41;;;;;;;16.48;12.43;;;;;;;13.01;88.73;101688.06;5031368;28;20138;-85
2022/05/10 03:17:10;;;;;;;20.02;12.52;;;;;;;12.97;88.85;101683.31;5027187;28;20033;-86
2022/05/10 03:19:38;;;;;;;16.50;12.02;;;;;;;12.93;89.05;101682.81;5032224;28;20132;-84
2022/05/10 03:22:04;;;;;;;19.23;12.25;;;;;;;12.91;89.36;101676.94;5028978;28;20036;-84
2022/05/10 03:24:30;;;;;;;18.27;12.25;;;;;;;12.92;89.40;101675.97;5029893;28;20041;-84
2022/05/10 03:26:57;;;;;;;15.55;11.48;;;;;;;12.94;89.29;101675.81;5027320;28;20032;-85
2022/05/10 03:29:23;;;;;;;17.05;11.75;;;;;;;12.96;89.06;101679.91;5030392;28;20041;-84
2022/05/10 03:31:51;;;;;;;18.40;11.43;;;;;;;12.93;88.83;101682.81;5012917;28;20036;-84
2022/05/10 03:37:02;;;;;;;23.73;12.90;;;;;;;12.84;89.41;101671.50;5049985;28;20033;-86
2022/05/10 03:39:27;;;;;;;19.90;13.10;;;;;;;12.83;89.24;101676.88;5042999;28;20094;-84
2022/05/10 03:41:53;;;;;;;20.42;12.95;;;;;;;12.85;89.07;101674.94;5042734;28;20028;-85
2022/05/10 03:44:18;;;;;;;17.83;12.43;;;;;;;12.85;88.94;101674.94;5046086;28;20029;-84
2022/05/10 03:46:45;;;;;;;18.55;12.75;;;;;;;12.83;88.70;101675.09;5040910;28;20036;-84
2022/05/10 03:49:10;;;;;;;22.80;13.38;;;;;;;12.83;89.02;101672.47;5016227;28;20914;-84
2022/05/10 03:51:36;;;;;;;18.75;12.88;;;;;;;12.82;88.82;101675.22;5029090;28;20124;-85
2022/05/10 03:54:01;;;;;;;22.48;13.05;;;;;;;12.75;89.34;101669.81;5017256;28;20037;-84
2022/05/10 03:56:26;;;;;;;24.63;13.70;;;;;;;12.72;89.28;101674.50;5010191;28;20029;-85
2022/05/10 03:58:56;;;;;;;23.00;12.25;;;;;;;12.71;89.54;101673.66;5042078;28;20144;-86
2022/05/10 04:01:22;;;;;;;20.20;13.30;;;;;;;12.71;89.66;101672.84;5032410;28;20037;-84
2022/05/10 04:03:48;;;;;;;21.60;13.02;;;;;;;12.70;89.24;101664.22;5031818;28;20029;-86
2022/05/10 04:06:15;;;;;;;26.88;13.82;;;;;;;12.71;89.23;101665.03;5032278;28;20029;-84
2022/05/10 04:08:41;;;;;;;22.65;13.00;;;;;;;12.71;88.93;101670.25;5013916;28;20136;-84
2022/05/10 04:11:09;;;;;;;21.40;12.98;;;;;;;12.71;89.18;101665.84;5031568;28;20651;-85
2022/05/10 04:13:34;;;;;;;29.52;13.60;;;;;;;12.71;89.05;101670.25;5048366;28;20051;-85
2022/05/10 04:16:00;;;;;;;32.30;14.27;;;;;;;12.72;88.98;101664.09;5048303;28;20486;-84
2022/05/10 04:18:26;;;;;;;31.77;13.23;;;;;;;12.73;88.91;101669.13;5052930;28;20071;-84
2022/05/10 04:20:52;;;;;;;26.08;14.20;;;;;;;12.76;88.61;101665.41;5045345;28;20083;-84
2022/05/10 04:23:18;;;;;;;35.72;15.85;;;;;;;12.78;88.63;101660.88;5018264;28;20033;-84
2022/05/10 04:25:43;;;;;;;34.67;17.83;;;;;;;12.75;89.26;101663.78;5033273;28;20037;-83
2022/05/10 04:28:09;;;;;;;34.60;16.92;;;;;;;12.74;89.68;101665.56;5033675;28;20079;-84
2022/05/10 04:30:35;;;;;;;30.65;16.48;;;;;;;12.68;90.17;101665.31;5036960;28;20091;-83
2022/05/10 04:33:00;;;;;;;30.85;17.83;;;;;;;12.68;90.55;101660.97;5040525;28;20033;-83
2022/05/10 04:35:26;;;;;;;30.35;17.35;;;;;;;12.68;90.50;101660.97;5052409;28;20028;-83
2022/05/10 04:37:51;;;;;;;42.22;18.33;;;;;;;12.79;90.73;101668.53;5033871;28;20422;-86
2022/05/10 04:43:01;;;;;;;29.25;16.45;;;;;;;12.71;90.76;101670.25;5048207;28;20037;-83
2022/05/10 04:45:27;;;;;;;28.55;15.85;;;;;;;12.69;91.58;101667.78;5035304;28;20067;-83
2022/05/10 04:47:53;;;;;;;27.25;15.65;;;;;;;12.70;91.43;101660.81;5031451;28;20079;-84
2022/05/10 04:50:18;;;;;;;24.80;14.90;;;;;;;12.76;91.04;101665.41;5019326;28;20036;-84
2022/05/10 04:52:44;;;;;;;30.70;17.23;;;;;;;12.79;90.59;101673.75;5027989;28;20486;-84
2022/05/10 04:55:10;;;;;;;35.85;17.13;;;;;;;12.95;90.39;101674.84;5016954;28;20044;-84
2022/05/10 04:57:37;;;;;;;39.42;17.08;;;;;;;12.86;90.51;101671.34;5028840;28;20104;-85
2022/05/10 05:00:06;;;;;;;31.38;16.90;;;;;;;12.82;90.84;101670.81;5029323;28;20025;-83
2022/05/10 05:02:32;;;;;;;25.92;16.65;;;;;;;12.84;90.98;101668.09;5009386;28;20262;-85
2022/05/10 05:04:57;;;;;;;33.95;16.88;;;;;;;12.84;91.23;101665.47;5052197;28;20540;-84
2022/05/10 05:07:23;;;;;;;30.55;16.38;;;;;;;12.89;91.44;101668.47;5034238;28;20032;-83
2022/05/10 05:09:48;;;;;;;26.38;15.32;;;;;;;12.91;91.67;101669.13;5047843;28;20041;-84
2022/05/10 05:12:14;;;;;;;22.85;14.68;;;;;;;12.95;91.25;101683.47;5012230;28;20060;-84
2022/05/10 05:14:41;;;;;;;29.20;17.05;;;;;;;13.00;91.45;101681.25;5031905;28;20404;-83
2022/05/10 05:17:06;;;;;;;29.30;16.55;;;;;;;13.02;91.36;101679.31;5045359;28;20030;-84
2022/05/10 05:19:32;;;;;;;23.15;15.40;;;;;;;13.09;91.50;101678.69;5024127;28;20094;-84
2022/05/10 05:21:57;;;;;;;29.02;16.33;;;;;;;13.15;91.16;101686.72;5028639;28;20104;-84
2022/05/10 05:24:23;;;;;;;30.40;17.75;;;;;;;13.19;91.48;101682.03;5025837;28;20033;-84
2022/05/10 05:26:48;;;;;;;30.25;16.45;;;;;;;13.25;91.31;101686.63;5030408;28;20041;-84
2022/05/10 05:29:14;;;;;;;28.75;15.98;;;;;;;13.43;89.89;101684.03;5031258;28;20095;-83
2022/05/10 05:31:40;;;;;;;31.17;16.35;;;;;;;13.47;89.66;101687.13;5048544;28;20060;-83
2022/05/10 05:34:06;;;;;;;25.70;15.07;;;;;;;13.42;89.78;101682.38;5029372;28;20067;-83
2022/05/10 05:36:31;;;;;;;28.85;15.88;;;;;;;13.48;90.01;101683.56;5030277;28;20061;-84
2022/05/10 05:38:57;;;;;;;27.08;16.27;;;;;;;13.62;89.63;101683.00;5034305;28;20021;-83
2022/05/10 05:41:23;;;;;;;29.85;15.88;;;;;;;13.66;88.20;101684.31;5032908;28;20061;-83
2022/05/10 05:43:48;;;;;;;32.25;15.80;;;;;;;13.75;86.98;101680.78;5043207;28;20382;-84
2022/05/10 05:46:14;;;;;;;29.13;14.85;;;;;;;13.83;87.05;101678.22;5030294;28;20037;-84
2022/05/10 05:48:39;;;;;;;26.73;14.85;;;;;;;13.94;86.57;101673.72;5013759;28;20029;-83
2022/05/10 05:51:05;;;;;;;36.88;15.07;;;;;;;14.14;85.69;101674.25;5030805;28;20111;-84
2022/05/10 05:53:31;;;;;;;27.73;13.60;;;;;;;14.40;84.94;101674.16;5034110;28;20501;-84
2022/05/10 05:56:08;;;;;;;29.35;14.57;;;;;;;14.68;83.60;101666.09;5019068;28;20039;-84
2022/05/10 05:58:35;;;;;;;29.55;13.73;;;;;;;14.93;81.52;101665.09;5030137;28;20033;-84
2022/05/10 06:01:00;;;;;;;21.63;13.77;;;;;;;15.11;81.07;101667.56;5017010;28;20041;-83
2022/05/10 06:03:26;;;;;;;24.67;14.00;;;;;;;15.40;79.59;101662.78;5013341;28;20041;-83
2022/05/10 06:05:51;;;;;;;27.38;14.98;;;;;;;15.40;78.12;101666.19;5032206;28;20029;-83
2022/05/10 06:08:19;;;;;;;20.98;11.60;;;;;;;15.60;77.90;101660.63;5030540;28;20025;-85
2022/05/10 06:10:49;;;;;;;18.20;11.98;;;;;;;15.70;76.76;101656.00;5046819;28;20192;-83
2022/05/10 06:13:21;;;;;;;26.75;11.93;;;;;;;15.79;77.68;101656.81;5037134;28;20025;-85
2022/05/10 06:15:47;;;;;;;18.40;12.00;;;;;;;15.78;76.19;101658.59;5026219;28;20086;-85
2022/05/10 06:18:15;;;;;;;19.52;12.50;;;;;;;15.86;76.35;101650.75;5045098;28;20086;-83
2022/05/10 06:20:40;;;;;;;20.77;11.25;;;;;;;16.12;75.89;101655.69;5032726;28;20762;-84
2022/05/10 06:23:06;;;;;;;18.23;10.73;;;;;;;16.31;76.05;101650.97;5041920;28;20040;-84
2022/05/10 06:25:32;;;;;;;15.35;10.90;;;;;;;16.58;74.07;101648.88;5030000;28;20044;-85
2022/05/10 06:27:58;;;;;;;20.80;11.57;;;;;;;16.87;73.11;101643.72;5027807;28;20101;-83
2022/05/10 06:30:24;;;;;;;23.67;11.25;;;;;;;17.04;71.92;101644.38;5041294;28;20095;-83
2022/05/10 06:32:50;;;;;;;19.48;11.50;;;;;;;17.15;71.54;101648.38;5013391;28;20124;-84
2022/05/10 06:35:17;;;;;;;18.08;10.85;;;;;;;17.26;69.82;101642.72;5016973;28;20115;-83
2022/05/10 06:40:26;;;;;;;18.25;10.63;;;;;;;17.57;68.71;101638.28;5047831;28;20033;-84
2022/05/10 06:42:52;;;;;;;16.40;9.82;;;;;;;17.77;68.36;101636.72;5042380;28;20461;-84
2022/05/10 06:45:21;;;;;;;17.05;10.35;;;;;;;17.78;68.16;101640.16;5029322;28;20026;-84
2022/05/10 06:47:49;;;;;;;17.70;10.20;;;;;;;17.94;68.38;101626.06;5025426;28;20535;-84
2022/05/10 06:50:18;;;;;;;31.27;16.10;;;;;;;18.03;67.90;101630.19;5028154;28;20043;-83
2022/05/10 06:52:44;;;;;;;25.73;10.88;;;;;;;18.06;67.30;101627.19;5013212;28;20056;-85
2022/05/10 06:55:10;;;;;;;17.55;10.40;;;;;;;17.98;66.92;101628.13;5032306;28;20043;-84
2022/05/10 06:57:36;;;;;;;21.77;10.57;;;;;;;18.10;66.37;101620.56;5042597;28;20028;-84
2022/05/10 07:00:04;;;;;;;16.02;11.05;;;;;;;18.26;66.00;101614.28;5028590;28;20037;-84
2022/05/10 07:02:29;;;;;;;13.13;9.25;;;;;;;18.51;65.72;101613.91;5040773;28;20045;-84
2022/05/10 07:04:55;;;;;;;20.13;10.82;;;;;;;18.85;64.92;101614.03;5028882;28;20033;-84
2022/05/10 07:07:21;;;;;;;15.48;9.77;;;;;;;19.22;64.13;101604.13;5030341;28;20502;-84
2022/05/10 07:09:46;;;;;;;20.92;9.82;;;;;;;19.17;64.29;101611.78;5016189;28;20044;-84
2022/05/10 07:12:12;;;;;;;17.83;9.13;;;;;;;19.00;63.78;101610.47;5029791;28;20039;-84
2022/05/10 07:14:41;;;;;;;15.40;9.38;;;;;;;18.84;65.10;101604.50;5012759;28;20043;-85
2022/05/10 07:17:07;;;;;;;18.52;9.55;;;;;;;18.84;66.22;101603.69;5026558;28;20104;-84
2022/05/10 07:19:32;;;;;;;21.60;9.57;;;;;;;18.84;65.22;101604.50;5014758;28;20044;-86
2022/05/10 07:21:58;;;;;;;13.95;9.57;;;;;;;18.85;66.08;101597.44;5042414;28;20032;-86
2022/05/10 07:24:23;;;;;;;17.98;9.85;;;;;;;18.78;66.20;101605.25;5026826;28;20037;-85
2022/05/10 07:26:49;;;;;;;20.02;10.32;;;;;;;19.14;65.25;101595.63;5042888;28;20032;-86
2022/05/10 07:29:16;;;;;;;18.50;10.25;;;;;;;19.54;63.94;101593.16;5021014;28;20504;-85
2022/05/10 07:31:43;;;;;;;23.90;10.85;;;;;;;19.88;62.57;101592.31;5006366;28;20039;-85
2022/05/10 07:34:09;;;;;;;18.95;9.93;;;;;;;20.32;61.33;101590.94;5028279;28;20040;-85
2022/05/10 07:36:37;;;;;;;15.90;9.10;;;;;;;20.53;60.83;101586.50;5030488;28;20110;-85
2022/05/10 07:39:04;;;;;;;28.30;11.63;;;;;;;20.63;59.97;101575.59;5043661;28;20021;-85
2022/05/10 07:41:30;;;;;;;21.65;10.18;;;;;;;20.48;61.02;101586.31;5042619;28;20039;-84
2022/05/10 07:43:57;;;;;;;17.83;9.55;;;;;;;20.84;60.05;101585.91;5026629;28;20580;-84
2022/05/10 07:46:23;;;;;;;14.52;9.90;;;;;;;20.96;59.66;101586.06;5030423;28;20039;-83
2022/05/10 07:48:49;;;;;;;15.50;9.18;;;;;;;21.32;59.56;101582.94;5049560;28;20085;-85
2022/05/10 07:51:14;;;;;;;18.23;8.57;;;;;;;21.86;57.27;101578.25;5032761;28;20071;-85
2022/05/10 07:53:41;;;;;;;15.82;9.43;;;;;;;22.32;56.78;101576.34;5033798;28;20040;-84
2022/05/10 07:56:08;;;;;;;21.40;8.43;;;;;;;22.71;55.39;101571.72;5017572;28;20033;-85
2022/05/10 07:58:35;;;;;;;19.67;8.82;;;;;;;23.44;55.15;101562.22;5033552;28;20057;-86
2022/05/10 08:01:02;;;;;;;17.02;8.38;;;;;;;23.84;53.54;101570.44;5029791;28;20060;-85
2022/05/10 08:03:27;;;;;;;15.43;7.68;;;;;;;24.04;52.57;101564.06;5034290;28;20029;-87
2022/05/10 08:05:59;;;;;;;19.38;7.60;;;;;;;24.08;51.17;101560.69;5044382;28;20033;-85
2022/05/10 08:08:27;;;;;;;24.13;7.10;;;;;;;24.62;52.06;101568.63;5033893;28;20039;-84
2022/05/10 08:10:54;;;;;;;15.88;5.43;;;;;;;25.00;48.32;101554.03;5030126;28;20049;-84
2022/05/10 08:13:28;;;;;;;21.35;5.80;;;;;;;25.55;47.86;101558.03;5031056;28;20037;-84
2022/05/10 08:15:54;;;;;;;15.48;5.90;;;;;;;25.71;46.20;101552.97;5049766;28;20463;-86
2022/05/10 08:18:21;;;;;;;19.00;5.30;;;;;;;25.44;45.33;101551.72;5046294;28;20428;-86
2022/05/10 08:20:47;;;;;;;20.52;5.03;;;;;;;25.36;46.88;101548.66;5020231;28;20089;-86
2022/05/10 08:23:19;;;;;;;13.60;5.10;;;;;;;24.79;47.71;101547.50;5049416;28;20513;-84
2022/05/10 08:25:44;;;;;;;15.50;5.28;;;;;;;24.71;47.26;101547.84;5028220;28;20521;-85
2022/05/10 08:28:13;;;;;;;11.02;4.15;;;;;;;25.35;45.63;101549.69;5031933;28;20666;-85
2022/05/10 08:30:44;;;;;;;15.07;4.88;;;;;;;24.96;44.78;101542.28;5029400;28;20040;-84
2022/05/10 08:33:10;;;;;;;17.75;4.70;;;;;;;24.65;47.79;101543.47;5030611;28;20044;-85
2022/05/10 08:35:37;;;;;;;12.95;4.18;;;;;;;24.38;48.30;101543.91;5027806;28;20029;-85
2022/05/10 08:38:03;;;;;;;7.00;3.60;;;;;;;24.15;47.23;101544.72;5047234;28;20386;-84
2022/05/10 08:40:43;;;;;;;8.07;3.28;;;;;;;23.97;46.06;101552.75;5049731;28;20036;-84
2022/05/10 08:43:16;;;;;;;10.63;3.47;;;;;;;23.69;46.81;101540.91;5011171;28;20087;-84
2022/05/10 08:45:45;;;;;;;6.50;4.15;;;;;;;23.65;48.92;101545.03;5029062;28;20056;-83
2022/05/10 08:48:10;;;;;;;5.90;3.63;;;;;;;23.66;48.10;101544.00;5029387;28;20116;-84
2022/05/10 08:50:44;;;;;;;7.72;3.15;;;;;;;23.71;48.19;101546.75;5031195;28;20059;-85
2022/05/10 08:53:11;;;;;;;8.07;2.75;;;;;;;24.15;47.48;101542.06;5029411;28;20025;-85
2022/05/10 08:55:45;;;;;;;7.78;3.17;;;;;;;24.20;46.83;101538.72;5033205;28;20386;-86
2022/05/10 08:58:37;;;;;;;9.65;3.95;;;;;;;24.24;44.80;101538.06;5030181;28;20040;-85
2022/05/10 09:01:08;;;;;;;9.05;3.25;;;;;;;24.41;45.56;101530.22;5028705;28;20033;-85
2022/05/10 09:03:47;;;;;;;12.35;3.47;;;;;;;24.32;45.36;101541.38;5030425;28;20025;-85
2022/05/10 09:06:22;;;;;;;6.35;3.03;;;;;;;24.09;45.71;101530.56;5050376;28;20067;-84
2022/05/10 09:08:57;;;;;;;6.30;3.22;;;;;;;24.07;46.46;101526.50;5046904;28;20037;-84
2022/05/10 09:11:24;;;;;;;5.57;2.80;;;;;;;24.26;45.84;101530.69;5015352;28;20127;-85
2022/05/10 09:13:50;;;;;;;5.55;2.90;;;;;;;24.42;46.01;101520.41;5028198;28;20620;-86
2022/05/10 09:16:15;;;;;;;4.25;3.00;;;;;;;24.32;45.26;101523.66;5029695;28;20029;-84
2022/05/10 09:18:54;;;;;;;4.18;2.55;;;;;;;24.41;45.11;101526.75;5031166;28;20029;-85
2022/05/10 09:21:24;;;;;;;8.75;3.47;;;;;;;24.43;45.18;101517.53;5012703;28;20037;-85
2022/05/10 09:23:52;;;;;;;5.35;2.72;;;;;;;24.59;43.87;101523.22;5016864;28;20041;-84
2022/05/10 09:26:19;;;;;;;6.13;2.92;;;;;;;24.43;43.17;101514.91;5031005;28;20033;-86
2022/05/10 09:28:50;;;;;;;6.55;3.50;;;;;;;24.80;42.96;101516.47;5032805;28;20059;-85
2022/05/10 09:37:34;;;;;;;5.00;2.30;;;;;;;25.08;43.44;101504.31;4990716;28;20108;-84
2022/05/10 09:40:12;;;;;;;5.70;2.90;;;;;;;25.15;44.21;101500.47;5016187;28;20041;-86
2022/05/10 09:42:41;;;;;;;6.88;2.80;;;;;;;24.94;42.59;101501.09;5031505;28;20032;-86
2022/05/10 09:45:23;;;;;;;7.55;3.05;;;;;;;24.78;42.76;101505.31;5017205;28;20024;-86
2022/05/10 09:48:00;;;;;;;6.75;3.30;;;;;;;24.67;41.59;101498.97;5031398;28;20053;-87
2022/05/10 09:50:39;;;;;;;5.80;2.90;;;;;;;24.89;42.57;101491.22;5041179;28;20409;-85
2022/05/10 09:53:07;;;;;;;5.43;3.00;;;;;;;25.14;42.69;101498.06;5024465;28;20158;-86
2022/05/10 09:55:33;;;;;;;7.78;2.95;;;;;;;25.21;42.35;101499.53;5013681;28;20052;-85
2022/05/10 09:58:12;;;;;;;5.72;3.20;;;;;;;25.20;41.02;101491.78;5026872;28;20533;-86
2022/05/10 10:00:40;;;;;;;3.97;3.15;;;;;;;25.35;41.61;101499.25;5026061;28;20102;-85
2022/05/10 10:03:06;;;;;;;3.83;2.70;;;;;;;25.64;40.63;101500.84;5027286;28;20490;-86
2022/05/10 10:05:33;;;;;;;4.45;2.72;;;;;;;25.67;41.46;101491.59;5015004;28;20037;-86
2022/05/10 10:07:58;;;;;;;3.78;2.53;;;;;;;25.77;39.90;101485.66;5035505;28;20021;-85
2022/05/10 10:10:26;;;;;;;9.05;3.58;;;;;;;25.79;41.73;101494.97;5028232;28;20036;-86
2022/05/10 10:12:51;;;;;;;12.52;3.95;;;;;;;25.45;41.14;101489.63;5026110;28;20032;-87
2022/05/10 10:15:41;;;;;;;5.57;3.20;;;;;;;25.25;41.47;101486.63;5018685;28;20528;-86
2022/05/10 10:18:09;;;;;;;6.43;3.00;;;;;;;25.19;42.47;101476.94;5014551;28;20032;-87
2022/05/10 10:20:38;;;;;;;5.13;2.95;;;;;;;25.22;42.88;101479.91;5013355;28;20041;-86
2022/05/10 10:23:10;;;;;;;7.13;2.97;;;;;;;25.17;41.16;101481.66;5030309;28;20390;-84
2022/05/10 10:25:44;;;;;;;5.93;3.05;;;;;;;25.06;41.19;101481.47;5029754;28;20033;-85
2022/05/10 10:28:38;;;;;;;5.72;2.90;;;;;;;24.83;42.40;101473.59;5029654;28;20565;-86
2022/05/10 10:31:13;;;;;;;6.28;2.67;;;;;;;24.71;42.76;101478.91;5025630;28;20039;-85
2022/05/10 10:33:48;;;;;;;6.95;2.97;;;;;;;24.67;41.80;101480.41;5012227;28;20120;-87
2022/05/10 10:36:43;;;;;;;8.98;3.50;;;;;;;24.45;42.36;101478.38;5025284;28;20044;-85
2022/05/10 10:39:35;;;;;;;8.75;3.03;;;;;;;24.40;42.77;101482.75;5014604;28;20041;-85
2022/05/10 10:42:27;;;;;;;4.45;3.00;;;;;;;24.45;42.30;101474.91;5039812;28;20105;-85
2022/05/10 10:44:58;;;;;;;25.20;4.43;;;;;;;24.50;43.00;101469.69;5026738;28;20060;-84
2022/05/10 10:47:36;;;;;;;6.68;3.28;;;;;;;24.73;42.89;101471.53;5021364;28;20096;-85
2022/05/10 10:50:30;;;;;;;9.02;3.58;;;;;;;24.86;43.32;101468.63;5043763;28;20122;-86
2022/05/10 10:52:57;;;;;;;5.13;2.60;;;;;;;24.91;43.58;101464.47;5013180;28;20047;-85
2022/05/10 10:55:56;;;;;;;5.75;3.38;;;;;;;25.21;42.87;101462.38;5027029;28;20112;-85
2022/05/10 10:58:53;;;;;;;9.10;3.15;;;;;;;25.23;41.65;101460.31;5026797;28;20068;-86
2022/05/10 11:02:01;;;;;;;4.53;2.53;;;;;;;25.17;41.45;101455.94;5040528;28;20032;-85
2022/05/10 11:04:51;;;;;;;6.18;3.30;;;;;;;25.14;42.32;101458.25;5027453;28;20086;-84
2022/05/10 11:07:29;;;;;;;7.60;3.28;;;;;;;25.19;41.60;101453.84;5032602;28;20069;-85
2022/05/10 11:10:04;;;;;;;8.18;3.20;;;;;;;25.15;40.37;101444.75;5024413;28;20539;-86
2022/05/10 11:12:47;;;;;;;7.13;3.35;;;;;;;25.21;41.66;101443.00;5022584;28;20128;-85
2022/05/10 11:15:40;;;;;;;7.10;3.00;;;;;;;25.27;42.09;101438.63;5027227;28;20083;-85
2022/05/10 11:18:35;;;;;;;5.72;3.05;;;;;;;25.23;42.04;101443.59;5042284;28;20034;-84
2022/05/10 11:21:19;;;;;;;6.03;3.30;;;;;;;25.37;40.83;101439.59;5040169;28;20163;-85
2022/05/10 11:24:14;;;;;;;5.07;3.13;;;;;;;25.43;42.19;101437.84;5040816;28;20111;-85
2022/05/10 11:27:09;;;;;;;4.50;3.17;;;;;;;25.52;42.20;101436.38;5027117;28;20041;-86
2022/05/10 11:30:00;;;;;;;12.23;5.00;;;;;;;25.55;41.47;101441.22;5029533;28;20103;-86
2022/05/10 11:33:01;;;;;;;15.73;3.58;;;;;;;25.87;40.97;101427.38;5025784;28;20029;-87
2022/05/10 11:35:42;;;;;;;7.18;3.20;;;;;;;26.29;39.96;101423.47;5012959;28;20028;-86
2022/05/10 11:38:13;;;;;;;8.95;4.50;;;;;;;26.18;39.37;101417.19;5010073;28;20060;-86
2022/05/10 11:41:21;;;;;;;9.23;3.20;;;;;;;26.34;40.56;101420.88;5006856;28;20048;-85
2022/05/10 11:44:15;;;;;;;8.85;3.70;;;;;;;26.65;39.50;101411.41;5027116;28;20029;-86
2022/05/10 11:47:17;;;;;;;8.45;3.67;;;;;;;26.77;40.58;101419.28;5026670;28;20037;-84
2022/05/10 11:50:06;;;;;;;8.77;3.55;;;;;;;26.95;38.48;101410.13;5031372;28;20071;-84
2022/05/10 11:52:51;;;;;;;5.80;3.38;;;;;;;26.94;40.06;101404.03;5014462;28;20528;-85